createdAt,value
2022-08-25T00:02:38.319Z,100.00
2022-08-25T00:05:43.826Z,100.00
2022-08-25T00:08:46.534Z,100.00
2022-08-25T00:11:49.935Z,100.00
2022-08-25T00:14:53.189Z,100.00
2022-08-25T00:17:58.113Z,100.00
2022-08-25T00:21:00.539Z,100.00
2022-08-25T00:24:04.293Z,100.00
2022-08-25T00:27:06.821Z,100.00
2022-08-25T00:30:12.039Z,100.00
2022-08-25T00:33:19.092Z,100.00
2022-08-25T00:36:21.944Z,100.00
2022-08-25T00:39:24.629Z,100.00
2022-08-25T00:42:27.581Z,100.00
2022-08-25T00:45:30.072Z,100.00
2022-08-25T00:48:32.857Z,100.00
2022-08-25T00:52:10.632Z,100.00
2022-08-25T00:55:22.232Z,100.00
2022-08-25T00:58:27.772Z,100.00
2022-08-25T01:01:30.883Z,100.00
2022-08-25T01:04:33.958Z,100.00
2022-08-25T01:07:38.001Z,100.00
2022-08-25T01:10:43.859Z,100.00
2022-08-25T01:13:54.227Z,100.00
2022-08-25T01:16:58.186Z,100.00
2022-08-25T01:20:00.979Z,100.00
2022-08-25T01:23:04.141Z,100.00
2022-08-25T01:26:09.737Z,100.00
2022-08-25T01:29:21.429Z,100.00
2022-08-25T01:32:24.234Z,100.00
2022-08-25T01:35:26.765Z,100.00
2022-08-25T01:38:29.628Z,100.00
2022-08-25T01:41:34.839Z,100.00
2022-08-25T01:44:41.241Z,100.00
2022-08-25T01:47:43.745Z,100.00
2022-08-25T01:50:47.978Z,100.00
2022-08-25T01:53:50.951Z,100.00
2022-08-25T01:56:53.740Z,100.00
2022-08-25T01:59:56.250Z,100.00
2022-08-25T02:02:59.101Z,100.00
2022-08-25T02:06:04.172Z,100.00
2022-08-25T02:09:17.393Z,100.00
2022-08-25T02:12:20.373Z,100.00
2022-08-25T02:15:22.880Z,100.00
2022-08-25T02:18:25.852Z,100.00
2022-08-25T02:21:28.690Z,100.00
2022-08-25T02:24:31.602Z,100.00
2022-08-25T02:27:34.147Z,100.00
2022-08-25T02:30:39.032Z,100.00
2022-08-25T02:33:41.605Z,100.00
2022-08-25T02:36:44.627Z,100.00
2022-08-25T02:39:47.161Z,100.00
2022-08-25T02:42:51.360Z,100.00
2022-08-25T02:45:55.664Z,100.00
2022-08-25T02:48:59.604Z,100.00
2022-08-25T02:52:02.273Z,100.00
2022-08-25T02:55:09.122Z,100.00
2022-08-25T02:58:14.010Z,100.00
2022-08-25T03:01:17.288Z,100.00
2022-08-25T03:04:19.934Z,100.00
2022-08-25T03:07:22.741Z,100.00
2022-08-25T03:10:27.529Z,100.00
2022-08-25T03:13:30.365Z,100.00
2022-08-25T03:16:33.487Z,100.00
2022-08-25T03:19:36.274Z,100.00
2022-08-25T03:22:39.021Z,100.00
2022-08-25T03:26:00.641Z,100.00
2022-08-25T03:29:07.249Z,100.00
2022-08-25T03:32:10.313Z,100.00
2022-08-25T03:35:13.415Z,100.00
2022-08-25T03:38:16.946Z,100.00
2022-08-25T03:41:21.980Z,100.00
2022-08-25T03:44:27.504Z,100.00
2022-08-25T03:47:31.200Z,100.00
2022-08-25T03:50:34.271Z,100.00
2022-08-25T03:53:36.804Z,100.00
2022-08-25T03:56:40.171Z,100.00
2022-08-25T03:59:43.634Z,100.00
2022-08-25T04:02:47.015Z,100.00
2022-08-25T04:05:49.866Z,100.00
2022-08-25T04:08:55.071Z,100.00
2022-08-25T04:11:57.988Z,100.00
2022-08-25T04:15:01.210Z,100.00
2022-08-25T04:18:04.369Z,100.00
2022-08-25T04:21:09.721Z,100.00
2022-08-25T04:24:13.505Z,100.00
2022-08-25T04:27:16.152Z,100.00
2022-08-25T04:30:19.037Z,100.00
2022-08-25T04:33:21.664Z,100.00
2022-08-25T04:36:24.842Z,100.00
2022-08-25T04:39:27.452Z,100.00
2022-08-25T04:42:30.256Z,100.00
2022-08-25T04:45:37.986Z,100.00
2022-08-25T04:48:41.193Z,100.00
2022-08-25T04:51:44.178Z,100.00
2022-08-25T04:54:47.526Z,100.00
2022-08-25T04:57:50.107Z,100.00
2022-08-25T05:00:53.137Z,100.00
2022-08-25T05:03:59.656Z,100.00
2022-08-25T05:07:03.339Z,100.00
2022-08-25T05:10:06.277Z,100.00
2022-08-25T05:13:09.051Z,100.00
2022-08-25T05:16:11.759Z,100.00
2022-08-25T05:19:15.059Z,100.00
2022-08-25T05:22:17.548Z,100.00
2022-08-25T05:25:20.454Z,100.00
2022-08-25T05:28:23.236Z,100.00
2022-08-25T05:31:27.456Z,100.00
2022-08-25T05:34:31.146Z,100.00
2022-08-25T05:37:35.115Z,100.00
2022-08-25T05:40:37.694Z,100.00
2022-08-25T05:43:41.963Z,100.00
2022-08-25T05:46:44.876Z,100.00
2022-08-25T05:49:47.628Z,100.00
2022-08-25T05:52:50.140Z,100.00
2022-08-25T05:55:54.815Z,100.00
2022-08-25T05:58:57.340Z,100.00
2022-08-25T06:02:18.540Z,100.00
2022-08-25T06:05:23.211Z,100.00
2022-08-25T06:08:30.466Z,100.00
2022-08-25T06:11:33.359Z,100.00
2022-08-25T06:14:35.969Z,100.00
2022-08-25T06:17:41.517Z,100.00
2022-08-25T06:20:44.020Z,100.00
2022-08-25T06:23:47.186Z,99.99
2022-08-25T06:26:49.859Z,98.92
2022-08-25T06:29:55.109Z,96.27
2022-08-25T06:32:58.723Z,95.59
2022-08-25T06:36:01.661Z,94.66
2022-08-25T06:39:04.327Z,93.19
2022-08-25T06:42:08.435Z,92.12
2022-08-25T06:45:11.151Z,91.92
2022-08-25T06:48:14.566Z,91.53
2022-08-25T06:51:19.385Z,91.41
2022-08-25T06:54:22.394Z,89.66
2022-08-25T06:57:25.264Z,89.46
2022-08-25T07:00:30.661Z,87.73
2022-08-25T07:03:34.156Z,87.52
2022-08-25T07:06:37.088Z,87.80
2022-08-25T07:09:39.609Z,87.47
2022-08-25T07:12:42.492Z,87.56
2022-08-25T07:15:45.229Z,86.80
2022-08-25T07:18:49.249Z,86.30
2022-08-25T07:21:54.199Z,85.14
2022-08-25T07:24:57.062Z,84.66
2022-08-25T07:27:59.741Z,83.22
2022-08-25T07:31:02.825Z,83.24
2022-08-25T07:34:26.244Z,81.84
2022-08-25T07:37:48.158Z,82.16
2022-08-25T07:40:57.006Z,81.42
2022-08-25T07:43:59.983Z,81.09
2022-08-25T07:47:02.549Z,80.21
2022-08-25T07:50:08.960Z,79.99
2022-08-25T07:53:12.449Z,79.26
2022-08-25T07:56:17.060Z,77.60
2022-08-25T07:59:19.527Z,77.17
2022-08-25T08:02:24.760Z,75.79
2022-08-25T08:05:29.089Z,75.88
2022-08-25T08:08:32.662Z,75.20
2022-08-25T08:11:45.537Z,75.48
2022-08-25T08:14:58.558Z,73.96
2022-08-25T08:18:03.145Z,73.89
2022-08-25T08:21:12.267Z,74.30
2022-08-25T08:24:38.357Z,73.40
2022-08-25T08:27:38.131Z,73.20
2022-08-25T08:30:41.004Z,70.43
2022-08-25T08:33:58.060Z,70.11
2022-08-25T08:37:01.355Z,69.17
2022-08-25T08:40:06.410Z,70.18
2022-08-25T08:43:18.077Z,70.12
2022-08-25T08:46:23.161Z,68.69
2022-08-25T08:49:55.056Z,63.21
2022-08-25T08:53:19.724Z,60.37
2022-08-25T08:56:36.474Z,58.97
2022-08-25T08:59:54.628Z,57.43
2022-08-25T09:03:07.166Z,57.53
2022-08-25T09:06:20.626Z,56.88
2022-08-25T09:09:35.766Z,58.36
2022-08-25T09:13:16.652Z,57.60
2022-08-25T09:16:55.243Z,56.22
2022-08-25T09:20:20.793Z,56.38
2022-08-25T09:23:34.900Z,56.51
2022-08-25T09:26:52.115Z,57.04
2022-08-25T09:29:54.800Z,55.50
2022-08-25T09:33:05.300Z,54.49
2022-08-25T09:36:09.003Z,54.44
2022-08-25T09:39:12.255Z,54.90
2022-08-25T09:42:15.155Z,53.87
2022-08-25T09:45:37.024Z,53.37
2022-08-25T09:48:56.971Z,55.53
2022-08-25T09:52:26.582Z,54.58
2022-08-25T09:55:34.692Z,52.98
2022-08-25T09:58:37.982Z,52.12
2022-08-25T10:01:54.248Z,52.33
2022-08-25T10:04:57.552Z,49.62
2022-08-25T10:08:03.254Z,49.13
2022-08-25T10:11:10.073Z,48.71
2022-08-25T10:14:24.922Z,48.87
2022-08-25T10:17:33.535Z,48.20
2022-08-25T10:20:36.296Z,48.14
2022-08-25T10:23:55.786Z,47.77
2022-08-25T10:27:07.310Z,47.96
2022-08-25T10:30:27.864Z,48.36
2022-08-25T10:34:00.465Z,48.37
2022-08-25T10:37:16.087Z,48.48
2022-08-25T10:40:25.011Z,48.62
2022-08-25T10:43:38.991Z,48.04
2022-08-25T10:46:56.476Z,47.48
2022-08-25T10:50:22.313Z,47.39
2022-08-25T10:53:34.181Z,46.93
2022-08-25T10:56:50.108Z,48.04
2022-08-25T11:00:57.672Z,47.95
2022-08-25T11:04:21.876Z,46.57
2022-08-25T11:07:37.978Z,47.15
2022-08-25T11:10:44.357Z,47.73
2022-08-25T11:13:56.033Z,48.40
2022-08-25T11:17:13.991Z,47.86
2022-08-25T11:20:27.058Z,48.30
2022-08-25T11:23:39.174Z,47.81
2022-08-25T11:26:53.846Z,47.86
2022-08-25T11:30:06.106Z,48.05
2022-08-25T11:33:14.697Z,47.34
2022-08-25T11:36:32.460Z,47.18
2022-08-25T11:40:07.272Z,48.12
2022-08-25T11:43:35.844Z,48.25
2022-08-25T11:46:51.260Z,47.53
2022-08-25T11:50:04.548Z,47.98
2022-08-25T11:53:29.030Z,47.37
2022-08-25T11:56:40.248Z,47.14
2022-08-25T11:59:55.352Z,46.82
2022-08-25T12:03:01.416Z,46.69
2022-08-25T12:06:20.224Z,45.83
2022-08-25T12:09:23.710Z,45.51
2022-08-25T12:12:55.313Z,45.62
2022-08-25T12:16:00.191Z,45.56
2022-08-25T12:19:28.013Z,44.69
2022-08-25T12:22:34.545Z,45.10
2022-08-25T12:25:43.477Z,44.69
2022-08-25T12:29:07.794Z,44.61
2022-08-25T12:32:27.406Z,43.59
2022-08-25T12:35:30.177Z,43.87
2022-08-25T12:38:52.425Z,43.42
2022-08-25T12:45:25.539Z,44.21
2022-08-25T12:48:28.068Z,44.05
2022-08-25T12:51:33.675Z,43.32
2022-08-25T12:54:52.216Z,43.05
2022-08-25T12:58:00.998Z,42.36
2022-08-25T13:01:17.439Z,43.10
2022-08-25T13:04:44.504Z,42.52
2022-08-25T13:08:05.408Z,42.40
2022-08-25T13:11:20.541Z,41.90
2022-08-25T13:17:40.658Z,41.84
2022-08-25T13:20:44.246Z,42.46
2022-08-25T13:23:50.977Z,42.43
2022-08-25T13:27:00.974Z,42.29
2022-08-25T13:30:08.269Z,42.03
2022-08-25T13:33:22.044Z,41.10
2022-08-25T13:36:50.405Z,41.17
2022-08-25T13:40:29.476Z,41.52
2022-08-25T13:43:32.780Z,41.12
2022-08-25T13:46:35.633Z,41.36
2022-08-25T13:49:42.137Z,40.78
2022-08-25T13:52:53.510Z,41.76
2022-08-25T13:56:01.773Z,41.10
2022-08-25T13:59:18.458Z,41.78
2022-08-25T14:02:49.859Z,41.06
2022-08-25T14:06:10.669Z,41.39
2022-08-25T14:09:16.650Z,41.34
2022-08-25T14:12:30.358Z,41.69
2022-08-25T14:15:33.958Z,41.49
2022-08-25T14:18:37.884Z,41.47
2022-08-25T14:21:42.193Z,41.21
2022-08-25T14:24:45.149Z,41.25
2022-08-25T14:28:16.330Z,41.27
2022-08-25T14:31:28.144Z,41.09
2022-08-25T14:34:36.661Z,40.76
2022-08-25T14:37:39.492Z,41.07
2022-08-25T14:40:43.836Z,40.74
2022-08-25T14:43:47.427Z,40.19
2022-08-25T14:46:55.446Z,40.14
2022-08-25T14:49:59.106Z,40.06
2022-08-25T14:53:03.714Z,39.72
2022-08-25T14:56:10.245Z,38.62
2022-08-25T14:59:13.440Z,38.10
2022-08-25T15:02:20.638Z,37.84
2022-08-25T15:05:28.362Z,36.43
2022-08-25T15:08:50.292Z,35.10
2022-08-25T15:11:56.046Z,33.88
2022-08-25T15:14:59.044Z,33.70
2022-08-25T15:18:01.693Z,31.90
2022-08-25T15:21:04.619Z,30.83
2022-08-25T15:24:09.383Z,30.23
2022-08-25T15:27:15.296Z,29.27
2022-08-25T15:30:18.510Z,28.26
2022-08-25T15:33:22.827Z,27.10
2022-08-25T15:36:26.835Z,25.81
2022-08-25T15:39:29.717Z,26.64
2022-08-25T15:42:32.332Z,25.59
2022-08-25T15:45:38.460Z,26.08
2022-08-25T15:48:41.534Z,25.60
2022-08-25T15:51:45.322Z,26.00
2022-08-25T15:54:48.061Z,25.80
2022-08-25T15:57:51.224Z,24.83
2022-08-25T16:00:56.300Z,25.20
2022-08-25T16:03:59.704Z,25.04
2022-08-25T16:07:02.285Z,24.82
2022-08-25T16:10:07.455Z,25.36
2022-08-25T16:13:11.113Z,26.01
2022-08-25T16:16:15.536Z,26.94
2022-08-25T16:19:18.251Z,27.15
2022-08-25T16:22:21.016Z,27.73
2022-08-25T16:25:23.779Z,28.11
2022-08-25T16:28:27.132Z,28.93
2022-08-25T16:31:29.863Z,30.31
2022-08-25T16:34:34.584Z,31.41
2022-08-25T16:37:37.368Z,32.63
2022-08-25T16:40:42.290Z,34.84
2022-08-25T16:43:47.076Z,37.44
2022-08-25T16:46:54.557Z,39.49
2022-08-25T16:49:57.357Z,41.54
2022-08-25T16:53:19.535Z,43.70
2022-08-25T16:56:27.875Z,45.67
2022-08-25T16:59:30.794Z,47.05
2022-08-25T17:02:33.354Z,48.14
2022-08-25T17:05:41.390Z,50.16
2022-08-25T17:08:44.189Z,50.82
2022-08-25T17:11:48.362Z,52.96
2022-08-25T17:14:51.373Z,54.11
2022-08-25T17:17:54.172Z,54.80
2022-08-25T17:21:03.953Z,55.87
2022-08-25T17:24:08.532Z,56.33
2022-08-25T17:27:12.920Z,57.44
2022-08-25T17:30:15.800Z,58.33
2022-08-25T17:33:21.161Z,58.81
2022-08-25T17:36:27.554Z,59.17
2022-08-25T17:39:30.364Z,60.39
2022-08-25T17:42:34.098Z,61.71
2022-08-25T17:45:39.061Z,63.62
2022-08-25T17:48:43.797Z,64.28
2022-08-25T17:51:46.645Z,64.56
2022-08-25T17:54:50.389Z,65.58
2022-08-25T17:57:56.731Z,66.13
2022-08-25T18:00:59.975Z,67.22
2022-08-25T18:04:03.456Z,67.59
2022-08-25T18:07:07.161Z,67.61
2022-08-25T18:10:11.268Z,68.22
2022-08-25T18:13:14.908Z,69.64
2022-08-25T18:16:18.148Z,69.97
2022-08-25T18:19:21.040Z,69.87
2022-08-25T18:22:24.442Z,70.26
2022-08-25T18:25:28.325Z,70.66
2022-08-25T18:28:32.872Z,70.83
2022-08-25T18:31:37.320Z,70.42
2022-08-25T18:34:40.286Z,70.74
2022-08-25T18:38:01.911Z,71.07
2022-08-25T18:41:07.018Z,71.42
2022-08-25T18:44:10.940Z,71.67
2022-08-25T18:47:14.005Z,71.51
2022-08-25T18:50:20.678Z,71.58
2022-08-25T18:53:30.580Z,71.97
2022-08-25T18:56:40.317Z,72.19
2022-08-25T18:59:43.361Z,72.73
2022-08-25T19:02:50.031Z,71.71
2022-08-25T19:05:57.267Z,72.40
2022-08-25T19:09:00.015Z,72.83
2022-08-25T19:12:03.946Z,72.95
2022-08-25T19:15:07.692Z,72.85
2022-08-25T19:18:13.051Z,73.20
2022-08-25T19:21:15.857Z,72.76
2022-08-25T19:24:19.379Z,72.21
2022-08-25T19:27:21.918Z,72.11
2022-08-25T19:30:26.960Z,72.38
2022-08-25T19:33:42.338Z,72.47
2022-08-25T19:36:48.016Z,72.34
2022-08-25T19:39:53.937Z,73.08
2022-08-25T19:42:57.976Z,73.30
2022-08-25T19:46:00.580Z,73.28
2022-08-25T19:49:22.236Z,73.06
2022-08-25T19:52:24.985Z,72.28
2022-08-25T19:55:29.734Z,73.14
2022-08-25T19:58:32.813Z,72.56
2022-08-25T20:01:36.804Z,72.79
2022-08-25T20:04:51.038Z,73.16
2022-08-25T20:07:56.264Z,73.61
2022-08-25T20:10:59.462Z,73.93
2022-08-25T20:14:04.036Z,73.15
2022-08-25T20:17:14.380Z,73.84
2022-08-25T20:20:32.465Z,73.92
2022-08-25T20:23:55.842Z,74.74
2022-08-25T20:26:59.433Z,75.40
2022-08-25T20:30:06.552Z,75.33
2022-08-25T20:33:09.167Z,74.98
2022-08-25T20:36:14.983Z,75.44
2022-08-25T20:39:18.040Z,76.02
2022-08-25T20:42:21.264Z,76.27
2022-08-25T20:45:24.018Z,77.01
2022-08-25T20:48:27.886Z,76.61
2022-08-25T20:51:31.046Z,76.80
2022-08-25T20:54:33.867Z,76.25
2022-08-25T20:57:36.445Z,75.68
2022-08-25T21:00:42.346Z,76.10
2022-08-25T21:03:45.084Z,75.85
2022-08-25T21:06:49.503Z,75.75
2022-08-25T21:09:52.731Z,76.45
2022-08-25T21:12:55.619Z,76.00
2022-08-25T21:15:58.938Z,76.05
2022-08-25T21:19:01.770Z,76.40
2022-08-25T21:22:04.370Z,76.82
2022-08-25T21:25:09.856Z,77.91
2022-08-25T21:28:12.524Z,78.27
2022-08-25T21:31:20.656Z,79.10
2022-08-25T21:34:23.468Z,79.28
2022-08-25T21:37:26.898Z,79.10
2022-08-25T21:40:29.413Z,78.13
2022-08-25T21:43:32.163Z,78.92
2022-08-25T21:46:36.292Z,80.21
2022-08-25T21:49:39.096Z,80.55
2022-08-25T21:52:42.467Z,81.04
2022-08-25T21:55:45.364Z,81.07
2022-08-25T21:58:49.188Z,81.61
2022-08-25T22:02:00.819Z,81.91
2022-08-25T22:05:03.801Z,81.98
2022-08-25T22:08:11.992Z,81.85
2022-08-25T22:11:18.199Z,81.82
2022-08-25T22:14:23.496Z,82.00
2022-08-25T22:17:26.592Z,82.65
2022-08-25T22:20:29.524Z,83.78
2022-08-25T22:23:33.219Z,84.77
2022-08-25T22:26:47.776Z,85.60
2022-08-25T22:29:51.888Z,86.37
2022-08-25T22:32:54.444Z,87.13
2022-08-25T22:36:00.022Z,88.08
2022-08-25T22:39:05.185Z,90.76
2022-08-25T22:42:07.970Z,90.45
2022-08-25T22:45:11.155Z,90.93
2022-08-25T22:48:14.072Z,90.99
2022-08-25T22:51:20.052Z,91.23
2022-08-25T22:54:23.151Z,91.76
2022-08-25T22:57:28.368Z,91.84
2022-08-25T23:00:31.604Z,92.19
2022-08-25T23:03:34.176Z,92.66
2022-08-25T23:06:37.023Z,92.83
2022-08-25T23:09:39.800Z,94.78
2022-08-25T23:12:43.981Z,94.98
2022-08-25T23:15:47.186Z,96.08
2022-08-25T23:18:50.224Z,97.10
2022-08-25T23:22:11.035Z,98.58
2022-08-25T23:25:13.996Z,99.72
2022-08-25T23:28:17.166Z,100.00
2022-08-25T23:31:20.895Z,100.00
2022-08-25T23:34:24.549Z,100.00
2022-08-25T23:37:27.332Z,100.00
2022-08-25T23:40:29.986Z,100.00
2022-08-25T23:43:35.248Z,100.00
2022-08-25T23:46:37.988Z,100.00
2022-08-25T23:49:40.783Z,100.00
2022-08-25T23:52:43.667Z,100.00
2022-08-25T23:55:51.382Z,100.00
2022-08-25T23:58:55.847Z,100.00
